EPRA

Radom Military Air Base Airport

Poland
METAR EPRA 170900Z 02006KT CAVOK M01/M02 Q1039
Observed Flight Rules
Nov-17 @ 09:00 UTC (21 minutes ago) Visual Flight Rules
Wind Visibility Clouds
20° at 6 knots 10,000+ meters
  • Clear skies
Temperatures Readings
Current -1°C / 30°F
Dewpoint -2°C / 28°F
Humidity 93%
Altimeter 30.68" Hg
Pressure 1039 hPa
Elevation 178
METAR EPRA 170900Z 02006KT CAVOK M01/M02 Q1039
Observed Flight Rules
Nov-17 @ 09:00 UTC
(21 minutes ago)
VFR
Wind Visibility
20° at 6 knots 10,000+ meters
Clouds
  • Clear skies
Temperature Dewpoint
-1°C / 30°F -2°C / 28°F
Humidity Altimeter Pressure
93% 30.68" Hg 1039 hPa